sensor_id;sensor_type;location;lat;lon;timestamp;P1;durP1;ratioP1;P2;durP2;ratioP2
56319;SDS011;42226;42.382;23.748;2023-12-07T00:02:14;7.60;;;6.90;;
56319;SDS011;42226;42.382;23.748;2023-12-07T00:04:42;7.90;;;7.20;;
56319;SDS011;42226;42.382;23.748;2023-12-07T00:07:10;8.35;;;7.60;;
56319;SDS011;42226;42.382;23.748;2023-12-07T00:09:38;9.52;;;8.60;;
56319;SDS011;42226;42.382;23.748;2023-12-07T00:12:06;9.80;;;8.80;;
56319;SDS011;42226;42.382;23.748;2023-12-07T00:14:35;12.13;;;10.82;;
56319;SDS011;42226;42.382;23.748;2023-12-07T00:17:03;12.30;;;10.98;;
56319;SDS011;42226;42.382;23.748;2023-12-07T00:19:30;13.32;;;11.38;;
56319;SDS011;42226;42.382;23.748;2023-12-07T00:21:59;14.10;;;12.38;;
56319;SDS011;42226;42.382;23.748;2023-12-07T00:24:25;14.57;;;11.60;;
56319;SDS011;42226;42.382;23.748;2023-12-07T00:26:53;14.32;;;11.57;;
56319;SDS011;42226;42.382;23.748;2023-12-07T00:29:20;13.95;;;10.80;;
56319;SDS011;42226;42.382;23.748;2023-12-07T00:31:47;13.13;;;11.73;;
56319;SDS011;42226;42.382;23.748;2023-12-07T00:34:14;12.68;;;11.27;;
56319;SDS011;42226;42.382;23.748;2023-12-07T00:36:43;12.43;;;11.05;;
56319;SDS011;42226;42.382;23.748;2023-12-07T00:39:10;13.35;;;11.82;;
56319;SDS011;42226;42.382;23.748;2023-12-07T00:41:38;13.15;;;10.50;;
56319;SDS011;42226;42.382;23.748;2023-12-07T00:44:06;13.88;;;11.00;;
56319;SDS011;42226;42.382;23.748;2023-12-07T00:46:33;12.55;;;11.25;;
56319;SDS011;42226;42.382;23.748;2023-12-07T00:49:01;12.00;;;10.68;;
56319;SDS011;42226;42.382;23.748;2023-12-07T00:51:28;11.77;;;10.57;;
56319;SDS011;42226;42.382;23.748;2023-12-07T00:53:56;10.95;;;9.82;;
56319;SDS011;42226;42.382;23.748;2023-12-07T00:56:23;11.25;;;9.80;;
56319;SDS011;42226;42.382;23.748;2023-12-07T00:58:51;10.98;;;9.25;;
56319;SDS011;42226;42.382;23.748;2023-12-07T01:01:18;11.05;;;9.90;;
56319;SDS011;42226;42.382;23.748;2023-12-07T01:03:45;11.88;;;9.68;;
56319;SDS011;42226;42.382;23.748;2023-12-07T01:06:12;10.15;;;9.13;;
56319;SDS011;42226;42.382;23.748;2023-12-07T01:08:42;12.30;;;10.43;;
56319;SDS011;42226;42.382;23.748;2023-12-07T01:11:09;9.82;;;8.82;;
56319;SDS011;42226;42.382;23.748;2023-12-07T01:13:37;10.98;;;9.55;;
56319;SDS011;42226;42.382;23.748;2023-12-07T01:16:05;12.52;;;10.00;;
56319;SDS011;42226;42.382;23.748;2023-12-07T01:18:32;11.80;;;9.52;;
56319;SDS011;42226;42.382;23.748;2023-12-07T01:20:59;12.95;;;10.68;;
56319;SDS011;42226;42.382;23.748;2023-12-07T01:23:26;13.23;;;10.40;;
56319;SDS011;42226;42.382;23.748;2023-12-07T01:25:54;15.23;;;10.52;;
56319;SDS011;42226;42.382;23.748;2023-12-07T01:28:20;12.95;;;10.85;;
56319;SDS011;42226;42.382;23.748;2023-12-07T01:30:48;13.88;;;11.20;;
56319;SDS011;42226;42.382;23.748;2023-12-07T01:33:15;14.23;;;11.32;;
56319;SDS011;42226;42.382;23.748;2023-12-07T01:35:42;13.05;;;10.73;;
56319;SDS011;42226;42.382;23.748;2023-12-07T01:38:10;13.45;;;11.35;;
56319;SDS011;42226;42.382;23.748;2023-12-07T01:40:37;16.05;;;12.73;;
56319;SDS011;42226;42.382;23.748;2023-12-07T01:43:06;14.50;;;12.30;;
56319;SDS011;42226;42.382;23.748;2023-12-07T01:45:33;15.40;;;12.60;;
56319;SDS011;42226;42.382;23.748;2023-12-07T01:48:01;15.00;;;11.38;;
56319;SDS011;42226;42.382;23.748;2023-12-07T01:50:28;15.18;;;11.63;;
56319;SDS011;42226;42.382;23.748;2023-12-07T01:55:43;14.48;;;11.77;;
56319;SDS011;42226;42.382;23.748;2023-12-07T01:58:11;13.63;;;11.20;;
56319;SDS011;42226;42.382;23.748;2023-12-07T02:00:39;13.48;;;11.63;;
56319;SDS011;42226;42.382;23.748;2023-12-07T02:03:06;12.50;;;11.20;;
56319;SDS011;42226;42.382;23.748;2023-12-07T02:05:32;12.95;;;11.50;;
56319;SDS011;42226;42.382;23.748;2023-12-07T02:08:01;14.10;;;11.98;;
56319;SDS011;42226;42.382;23.748;2023-12-07T02:10:27;15.48;;;12.00;;
56319;SDS011;42226;42.382;23.748;2023-12-07T02:12:56;12.52;;;10.55;;
56319;SDS011;42226;42.382;23.748;2023-12-07T02:15:23;14.02;;;11.55;;
56319;SDS011;42226;42.382;23.748;2023-12-07T02:20:45;15.27;;;12.50;;
56319;SDS011;42226;42.382;23.748;2023-12-07T02:23:55;12.07;;;10.73;;
56319;SDS011;42226;42.382;23.748;2023-12-07T02:29:16;14.02;;;10.63;;
56319;SDS011;42226;42.382;23.748;2023-12-07T02:31:43;11.77;;;10.23;;
56319;SDS011;42226;42.382;23.748;2023-12-07T02:34:12;10.95;;;9.68;;
56319;SDS011;42226;42.382;23.748;2023-12-07T02:36:39;12.30;;;9.05;;
56319;SDS011;42226;42.382;23.748;2023-12-07T02:39:08;10.20;;;9.20;;
56319;SDS011;42226;42.382;23.748;2023-12-07T02:41:37;9.00;;;8.10;;
56319;SDS011;42226;42.382;23.748;2023-12-07T02:44:06;10.25;;;8.70;;
56319;SDS011;42226;42.382;23.748;2023-12-07T02:46:33;9.63;;;8.48;;
56319;SDS011;42226;42.382;23.748;2023-12-07T02:49:01;9.40;;;8.40;;
56319;SDS011;42226;42.382;23.748;2023-12-07T02:51:29;8.88;;;8.07;;
56319;SDS011;42226;42.382;23.748;2023-12-07T02:53:57;9.40;;;8.48;;
56319;SDS011;42226;42.382;23.748;2023-12-07T02:56:25;9.13;;;8.27;;
56319;SDS011;42226;42.382;23.748;2023-12-07T02:58:53;10.32;;;9.02;;
56319;SDS011;42226;42.382;23.748;2023-12-07T03:01:21;9.90;;;8.35;;
56319;SDS011;42226;42.382;23.748;2023-12-07T03:03:48;9.32;;;8.43;;
56319;SDS011;42226;42.382;23.748;2023-12-07T03:06:14;8.50;;;7.60;;
56319;SDS011;42226;42.382;23.748;2023-12-07T03:08:42;9.85;;;8.88;;
56319;SDS011;42226;42.382;23.748;2023-12-07T03:11:09;9.55;;;8.55;;
56319;SDS011;42226;42.382;23.748;2023-12-07T03:13:36;10.55;;;8.48;;
56319;SDS011;42226;42.382;23.748;2023-12-07T03:16:07;10.15;;;9.07;;
56319;SDS011;42226;42.382;23.748;2023-12-07T03:18:36;9.75;;;8.75;;
56319;SDS011;42226;42.382;23.748;2023-12-07T03:21:04;9.35;;;8.32;;
56319;SDS011;42226;42.382;23.748;2023-12-07T03:23:31;10.00;;;9.00;;
56319;SDS011;42226;42.382;23.748;2023-12-07T03:25:58;10.63;;;9.20;;
56319;SDS011;42226;42.382;23.748;2023-12-07T03:28:24;10.43;;;9.32;;
56319;SDS011;42226;42.382;23.748;2023-12-07T03:30:52;9.75;;;8.75;;
56319;SDS011;42226;42.382;23.748;2023-12-07T03:33:20;10.77;;;9.30;;
56319;SDS011;42226;42.382;23.748;2023-12-07T03:35:47;9.73;;;8.73;;
56319;SDS011;42226;42.382;23.748;2023-12-07T03:38:15;8.75;;;7.95;;
56319;SDS011;42226;42.382;23.748;2023-12-07T03:40:42;10.38;;;9.30;;
56319;SDS011;42226;42.382;23.748;2023-12-07T03:43:14;10.27;;;9.27;;
56319;SDS011;42226;42.382;23.748;2023-12-07T03:45:44;8.93;;;8.13;;
56319;SDS011;42226;42.382;23.748;2023-12-07T03:48:12;8.85;;;8.05;;
56319;SDS011;42226;42.382;23.748;2023-12-07T03:50:39;8.85;;;8.05;;
56319;SDS011;42226;42.382;23.748;2023-12-07T03:53:07;8.43;;;7.65;;
56319;SDS011;42226;42.382;23.748;2023-12-07T03:55:36;9.02;;;8.02;;
56319;SDS011;42226;42.382;23.748;2023-12-07T03:58:03;8.43;;;7.65;;
56319;SDS011;42226;42.382;23.748;2023-12-07T04:00:34;9.05;;;8.00;;
56319;SDS011;42226;42.382;23.748;2023-12-07T04:03:01;8.95;;;8.07;;
56319;SDS011;42226;42.382;23.748;2023-12-07T04:05:30;8.82;;;7.93;;
56319;SDS011;42226;42.382;23.748;2023-12-07T04:07:57;9.35;;;8.45;;
56319;SDS011;42226;42.382;23.748;2023-12-07T04:10:25;9.50;;;8.50;;
56319;SDS011;42226;42.382;23.748;2023-12-07T04:12:51;12.18;;;9.07;;
56319;SDS011;42226;42.382;23.748;2023-12-07T04:15:19;10.65;;;8.93;;
56319;SDS011;42226;42.382;23.748;2023-12-07T04:17:46;10.18;;;9.10;;
56319;SDS011;42226;42.382;23.748;2023-12-07T04:20:13;10.02;;;9.02;;
56319;SDS011;42226;42.382;23.748;2023-12-07T04:22:41;10.20;;;9.07;;
56319;SDS011;42226;42.382;23.748;2023-12-07T04:25:10;10.38;;;9.38;;
56319;SDS011;42226;42.382;23.748;2023-12-07T04:27:38;10.02;;;9.02;;
56319;SDS011;42226;42.382;23.748;2023-12-07T04:30:05;10.82;;;8.85;;
56319;SDS011;42226;42.382;23.748;2023-12-07T04:32:33;9.93;;;8.93;;
56319;SDS011;42226;42.382;23.748;2023-12-07T04:34:59;10.85;;;9.52;;
56319;SDS011;42226;42.382;23.748;2023-12-07T04:37:27;9.90;;;8.93;;
56319;SDS011;42226;42.382;23.748;2023-12-07T04:39:54;10.85;;;9.75;;
56319;SDS011;42226;42.382;23.748;2023-12-07T04:42:21;9.32;;;8.52;;
56319;SDS011;42226;42.382;23.748;2023-12-07T04:44:49;10.10;;;9.10;;
56319;SDS011;42226;42.382;23.748;2023-12-07T04:47:16;9.73;;;8.75;;
56319;SDS011;42226;42.382;23.748;2023-12-07T04:49:44;9.90;;;8.90;;
56319;SDS011;42226;42.382;23.748;2023-12-07T04:52:12;9.18;;;8.23;;
56319;SDS011;42226;42.382;23.748;2023-12-07T04:54:39;9.32;;;8.35;;
56319;SDS011;42226;42.382;23.748;2023-12-07T04:57:07;9.10;;;8.20;;
56319;SDS011;42226;42.382;23.748;2023-12-07T04:59:34;8.80;;;8.00;;
56319;SDS011;42226;42.382;23.748;2023-12-07T05:02:01;8.63;;;7.82;;
56319;SDS011;42226;42.382;23.748;2023-12-07T05:04:29;9.48;;;8.55;;
56319;SDS011;42226;42.382;23.748;2023-12-07T05:06:55;9.05;;;8.10;;
56319;SDS011;42226;42.382;23.748;2023-12-07T05:09:23;9.50;;;8.60;;
56319;SDS011;42226;42.382;23.748;2023-12-07T05:11:52;10.27;;;8.60;;
56319;SDS011;42226;42.382;23.748;2023-12-07T05:14:20;10.10;;;8.57;;
56319;SDS011;42226;42.382;23.748;2023-12-07T05:16:51;10.40;;;9.32;;
56319;SDS011;42226;42.382;23.748;2023-12-07T05:19:24;10.63;;;9.52;;
56319;SDS011;42226;42.382;23.748;2023-12-07T05:21:52;11.23;;;9.10;;
56319;SDS011;42226;42.382;23.748;2023-12-07T05:24:20;10.80;;;9.70;;
56319;SDS011;42226;42.382;23.748;2023-12-07T05:26:47;9.95;;;8.98;;
56319;SDS011;42226;42.382;23.748;2023-12-07T05:29:15;9.90;;;8.95;;
56319;SDS011;42226;42.382;23.748;2023-12-07T05:31:42;10.80;;;9.52;;
56319;SDS011;42226;42.382;23.748;2023-12-07T05:34:09;9.90;;;8.90;;
56319;SDS011;42226;42.382;23.748;2023-12-07T05:36:37;9.65;;;8.13;;
56319;SDS011;42226;42.382;23.748;2023-12-07T05:39:04;10.07;;;8.88;;
56319;SDS011;42226;42.382;23.748;2023-12-07T05:41:33;9.50;;;8.60;;
56319;SDS011;42226;42.382;23.748;2023-12-07T05:44:00;9.55;;;8.55;;
56319;SDS011;42226;42.382;23.748;2023-12-07T05:46:27;10.82;;;9.75;;
56319;SDS011;42226;42.382;23.748;2023-12-07T05:48:55;11.05;;;9.95;;
56319;SDS011;42226;42.382;23.748;2023-12-07T05:51:23;10.52;;;9.52;;
56319;SDS011;42226;42.382;23.748;2023-12-07T05:56:49;11.20;;;10.00;;
56319;SDS011;42226;42.382;23.748;2023-12-07T05:59:17;11.32;;;10.02;;
56319;SDS011;42226;42.382;23.748;2023-12-07T06:01:44;11.65;;;10.43;;
56319;SDS011;42226;42.382;23.748;2023-12-07T06:07:44;11.52;;;10.32;;
56319;SDS011;42226;42.382;23.748;2023-12-07T06:10:10;12.13;;;10.93;;
56319;SDS011;42226;42.382;23.748;2023-12-07T06:12:38;12.07;;;10.77;;
56319;SDS011;42226;42.382;23.748;2023-12-07T06:15:05;12.85;;;10.77;;
56319;SDS011;42226;42.382;23.748;2023-12-07T06:17:33;13.15;;;10.65;;
56319;SDS011;42226;42.382;23.748;2023-12-07T06:20:00;11.85;;;10.52;;
56319;SDS011;42226;42.382;23.748;2023-12-07T06:22:29;12.52;;;10.80;;
56319;SDS011;42226;42.382;23.748;2023-12-07T06:24:57;12.18;;;10.88;;
56319;SDS011;42226;42.382;23.748;2023-12-07T06:27:24;13.00;;;10.98;;
56319;SDS011;42226;42.382;23.748;2023-12-07T06:29:51;13.63;;;11.60;;
56319;SDS011;42226;42.382;23.748;2023-12-07T06:32:18;14.57;;;12.10;;
56319;SDS011;42226;42.382;23.748;2023-12-07T06:34:46;14.30;;;11.73;;
56319;SDS011;42226;42.382;23.748;2023-12-07T06:37:13;13.25;;;11.35;;
56319;SDS011;42226;42.382;23.748;2023-12-07T06:39:40;12.45;;;10.98;;
56319;SDS011;42226;42.382;23.748;2023-12-07T06:42:07;12.10;;;10.80;;
56319;SDS011;42226;42.382;23.748;2023-12-07T06:48:07;12.10;;;10.82;;
56319;SDS011;42226;42.382;23.748;2023-12-07T06:50:35;11.98;;;10.55;;
56319;SDS011;42226;42.382;23.748;2023-12-07T06:53:03;12.60;;;10.88;;
56319;SDS011;42226;42.382;23.748;2023-12-07T06:55:30;13.57;;;11.30;;
56319;SDS011;42226;42.382;23.748;2023-12-07T06:57:57;11.52;;;10.32;;
56319;SDS011;42226;42.382;23.748;2023-12-07T07:00:24;11.32;;;10.20;;
56319;SDS011;42226;42.382;23.748;2023-12-07T07:02:52;12.32;;;11.02;;
56319;SDS011;42226;42.382;23.748;2023-12-07T07:05:19;12.10;;;10.80;;
56319;SDS011;42226;42.382;23.748;2023-12-07T07:07:46;12.10;;;10.90;;
56319;SDS011;42226;42.382;23.748;2023-12-07T07:10:13;12.90;;;11.40;;
56319;SDS011;42226;42.382;23.748;2023-12-07T07:12:39;13.18;;;11.32;;
56319;SDS011;42226;42.382;23.748;2023-12-07T07:18:33;10.90;;;9.77;;
56319;SDS011;42226;42.382;23.748;2023-12-07T07:21:01;11.13;;;9.90;;
56319;SDS011;42226;42.382;23.748;2023-12-07T07:23:29;11.57;;;10.35;;
56319;SDS011;42226;42.382;23.748;2023-12-07T07:25:58;11.07;;;9.98;;
56319;SDS011;42226;42.382;23.748;2023-12-07T07:28:26;10.35;;;9.35;;
56319;SDS011;42226;42.382;23.748;2023-12-07T07:30:54;11.20;;;10.05;;
56319;SDS011;42226;42.382;23.748;2023-12-07T07:33:23;10.68;;;8.90;;
56319;SDS011;42226;42.382;23.748;2023-12-07T07:35:51;9.90;;;8.93;;
56319;SDS011;42226;42.382;23.748;2023-12-07T07:38:18;9.93;;;8.93;;
56319;SDS011;42226;42.382;23.748;2023-12-07T07:40:46;10.85;;;9.55;;
56319;SDS011;42226;42.382;23.748;2023-12-07T07:43:15;9.57;;;8.57;;
56319;SDS011;42226;42.382;23.748;2023-12-07T07:45:41;10.40;;;9.30;;
56319;SDS011;42226;42.382;23.748;2023-12-07T07:48:09;10.27;;;9.18;;
56319;SDS011;42226;42.382;23.748;2023-12-07T07:50:38;10.23;;;9.23;;
56319;SDS011;42226;42.382;23.748;2023-12-07T07:53:05;9.32;;;8.43;;
56319;SDS011;42226;42.382;23.748;2023-12-07T07:58:52;8.57;;;7.72;;
56319;SDS011;42226;42.382;23.748;2023-12-07T08:01:20;9.45;;;8.50;;
56319;SDS011;42226;42.382;23.748;2023-12-07T08:03:46;9.20;;;8.40;;
56319;SDS011;42226;42.382;23.748;2023-12-07T08:06:15;8.93;;;8.13;;
56319;SDS011;42226;42.382;23.748;2023-12-07T08:08:41;8.25;;;7.50;;
56319;SDS011;42226;42.382;23.748;2023-12-07T08:11:09;8.82;;;8.02;;
56319;SDS011;42226;42.382;23.748;2023-12-07T08:13:39;9.27;;;7.97;;
56319;SDS011;42226;42.382;23.748;2023-12-07T08:16:10;8.60;;;7.78;;
56319;SDS011;42226;42.382;23.748;2023-12-07T08:18:37;8.48;;;7.78;;
56319;SDS011;42226;42.382;23.748;2023-12-07T08:21:04;8.25;;;7.55;;
56319;SDS011;42226;42.382;23.748;2023-12-07T08:23:34;8.48;;;7.78;;
56319;SDS011;42226;42.382;23.748;2023-12-07T08:26:02;8.45;;;7.65;;
56319;SDS011;42226;42.382;23.748;2023-12-07T08:28:29;8.57;;;7.88;;
56319;SDS011;42226;42.382;23.748;2023-12-07T08:30:57;8.65;;;7.95;;
56319;SDS011;42226;42.382;23.748;2023-12-07T08:33:24;8.07;;;7.38;;
56319;SDS011;42226;42.382;23.748;2023-12-07T08:35:51;7.72;;;7.03;;
56319;SDS011;42226;42.382;23.748;2023-12-07T08:38:20;7.63;;;7.03;;
56319;SDS011;42226;42.382;23.748;2023-12-07T08:40:50;8.00;;;7.30;;
56319;SDS011;42226;42.382;23.748;2023-12-07T08:43:21;7.88;;;7.28;;
56319;SDS011;42226;42.382;23.748;2023-12-07T08:45:49;8.05;;;7.35;;
56319;SDS011;42226;42.382;23.748;2023-12-07T08:48:19;8.43;;;7.63;;
56319;SDS011;42226;42.382;23.748;2023-12-07T08:50:46;8.05;;;7.35;;
56319;SDS011;42226;42.382;23.748;2023-12-07T08:53:14;8.60;;;7.90;;
56319;SDS011;42226;42.382;23.748;2023-12-07T08:55:41;7.82;;;7.20;;
56319;SDS011;42226;42.382;23.748;2023-12-07T08:58:14;8.20;;;7.50;;
56319;SDS011;42226;42.382;23.748;2023-12-07T09:00:41;7.10;;;6.55;;
56319;SDS011;42226;42.382;23.748;2023-12-07T09:03:10;7.60;;;6.90;;
56319;SDS011;42226;42.382;23.748;2023-12-07T09:05:38;7.40;;;6.80;;
56319;SDS011;42226;42.382;23.748;2023-12-07T09:08:05;7.95;;;7.25;;
56319;SDS011;42226;42.382;23.748;2023-12-07T09:10:33;7.57;;;6.95;;
56319;SDS011;42226;42.382;23.748;2023-12-07T09:13:01;7.68;;;7.07;;
56319;SDS011;42226;42.382;23.748;2023-12-07T09:15:29;7.80;;;7.20;;
56319;SDS011;42226;42.382;23.748;2023-12-07T09:17:56;7.38;;;6.78;;
56319;SDS011;42226;42.382;23.748;2023-12-07T09:20:25;7.28;;;6.68;;
56319;SDS011;42226;42.382;23.748;2023-12-07T09:22:52;7.68;;;7.07;;
56319;SDS011;42226;42.382;23.748;2023-12-07T09:25:21;8.48;;;7.78;;
56319;SDS011;42226;42.382;23.748;2023-12-07T09:27:48;8.70;;;8.00;;
56319;SDS011;42226;42.382;23.748;2023-12-07T09:30:17;7.97;;;7.38;;
56319;SDS011;42226;42.382;23.748;2023-12-07T09:32:45;8.98;;;8.18;;
56319;SDS011;42226;42.382;23.748;2023-12-07T09:35:13;9.10;;;8.20;;
56319;SDS011;42226;42.382;23.748;2023-12-07T09:37:47;8.25;;;7.53;;
56319;SDS011;42226;42.382;23.748;2023-12-07T09:40:18;8.95;;;8.15;;
56319;SDS011;42226;42.382;23.748;2023-12-07T09:42:47;8.52;;;7.72;;
56319;SDS011;42226;42.382;23.748;2023-12-07T09:45:17;8.90;;;8.10;;
56319;SDS011;42226;42.382;23.748;2023-12-07T09:47:50;8.57;;;7.80;;
56319;SDS011;42226;42.382;23.748;2023-12-07T09:50:22;8.30;;;7.60;;
56319;SDS011;42226;42.382;23.748;2023-12-07T09:52:51;8.95;;;8.13;;
56319;SDS011;42226;42.382;23.748;2023-12-07T09:55:22;8.93;;;8.13;;
56319;SDS011;42226;42.382;23.748;2023-12-07T09:57:52;8.95;;;8.07;;
56319;SDS011;42226;42.382;23.748;2023-12-07T10:00:22;8.90;;;8.10;;
56319;SDS011;42226;42.382;23.748;2023-12-07T10:02:50;9.85;;;8.95;;
56319;SDS011;42226;42.382;23.748;2023-12-07T10:05:18;9.38;;;8.48;;
56319;SDS011;42226;42.382;23.748;2023-12-07T10:07:48;11.55;;;9.80;;
56319;SDS011;42226;42.382;23.748;2023-12-07T10:10:18;12.77;;;11.45;;
56319;SDS011;42226;42.382;23.748;2023-12-07T10:12:52;13.57;;;12.15;;
56319;SDS011;42226;42.382;23.748;2023-12-07T10:15:22;15.95;;;13.88;;
56319;SDS011;42226;42.382;23.748;2023-12-07T10:17:52;17.95;;;14.57;;
56319;SDS011;42226;42.382;23.748;2023-12-07T10:20:21;42.42;;;35.58;;
56319;SDS011;42226;42.382;23.748;2023-12-07T10:25:38;16.27;;;14.60;;
56319;SDS011;42226;42.382;23.748;2023-12-07T10:28:07;22.88;;;20.38;;
56319;SDS011;42226;42.382;23.748;2023-12-07T10:30:40;15.90;;;14.20;;
56319;SDS011;42226;42.382;23.748;2023-12-07T10:33:10;16.08;;;13.25;;
56319;SDS011;42226;42.382;23.748;2023-12-07T10:35:39;15.75;;;13.80;;
56319;SDS011;42226;42.382;23.748;2023-12-07T10:38:07;28.23;;;23.50;;
56319;SDS011;42226;42.382;23.748;2023-12-07T10:40:38;36.75;;;29.15;;
56319;SDS011;42226;42.382;23.748;2023-12-07T10:43:07;25.80;;;20.30;;
56319;SDS011;42226;42.382;23.748;2023-12-07T10:45:36;30.05;;;25.75;;
56319;SDS011;42226;42.382;23.748;2023-12-07T10:48:04;36.05;;;30.92;;
56319;SDS011;42226;42.382;23.748;2023-12-07T10:50:45;40.95;;;31.75;;
56319;SDS011;42226;42.382;23.748;2023-12-07T10:53:50;52.95;;;39.47;;
56319;SDS011;42226;42.382;23.748;2023-12-07T10:56:11;40.60;;;31.63;;
56319;SDS011;42226;42.382;23.748;2023-12-07T10:58:52;33.63;;;27.10;;
56319;SDS011;42226;42.382;23.748;2023-12-07T11:01:23;29.13;;;20.92;;
56319;SDS011;42226;42.382;23.748;2023-12-07T11:03:52;44.38;;;34.05;;
56319;SDS011;42226;42.382;23.748;2023-12-07T11:06:22;37.00;;;29.17;;
56319;SDS011;42226;42.382;23.748;2023-12-07T11:08:52;34.65;;;29.48;;
56319;SDS011;42226;42.382;23.748;2023-12-07T11:11:31;26.80;;;22.08;;
56319;SDS011;42226;42.382;23.748;2023-12-07T11:14:13;28.70;;;25.50;;
56319;SDS011;42226;42.382;23.748;2023-12-07T11:16:44;60.88;;;51.58;;
56319;SDS011;42226;42.382;23.748;2023-12-07T11:22:01;22.98;;;20.58;;
56319;SDS011;42226;42.382;23.748;2023-12-07T11:24:32;46.25;;;40.60;;
56319;SDS011;42226;42.382;23.748;2023-12-07T11:27:00;31.77;;;28.48;;
56319;SDS011;42226;42.382;23.748;2023-12-07T11:29:29;43.78;;;34.95;;
56319;SDS011;42226;42.382;23.748;2023-12-07T11:32:03;54.53;;;46.13;;
56319;SDS011;42226;42.382;23.748;2023-12-07T11:34:39;22.52;;;20.20;;
56319;SDS011;42226;42.382;23.748;2023-12-07T11:37:09;37.95;;;34.10;;
56319;SDS011;42226;42.382;23.748;2023-12-07T11:39:41;16.73;;;14.98;;
56319;SDS011;42226;42.382;23.748;2023-12-07T11:42:17;11.13;;;10.13;;
56319;SDS011;42226;42.382;23.748;2023-12-07T11:44:49;45.30;;;40.42;;
56319;SDS011;42226;42.382;23.748;2023-12-07T11:47:17;68.13;;;52.80;;
56319;SDS011;42226;42.382;23.748;2023-12-07T11:49:49;13.95;;;12.57;;
56319;SDS011;42226;42.382;23.748;2023-12-07T11:52:16;16.92;;;15.25;;
56319;SDS011;42226;42.382;23.748;2023-12-07T11:54:46;11.27;;;10.25;;
56319;SDS011;42226;42.382;23.748;2023-12-07T11:57:14;9.90;;;9.00;;
56319;SDS011;42226;42.382;23.748;2023-12-07T11:59:44;10.40;;;9.32;;
56319;SDS011;42226;42.382;23.748;2023-12-07T12:02:13;11.90;;;10.85;;
56319;SDS011;42226;42.382;23.748;2023-12-07T12:04:40;11.00;;;10.00;;
56319;SDS011;42226;42.382;23.748;2023-12-07T12:07:07;10.88;;;9.90;;
56319;SDS011;42226;42.382;23.748;2023-12-07T12:09:34;8.60;;;7.80;;
56319;SDS011;42226;42.382;23.748;2023-12-07T12:12:02;9.18;;;8.38;;
56319;SDS011;42226;42.382;23.748;2023-12-07T12:14:29;17.77;;;15.82;;
56319;SDS011;42226;42.382;23.748;2023-12-07T12:16:57;10.77;;;9.82;;
56319;SDS011;42226;42.382;23.748;2023-12-07T12:19:24;16.17;;;14.57;;
56319;SDS011;42226;42.382;23.748;2023-12-07T12:21:54;10.48;;;9.57;;
56319;SDS011;42226;42.382;23.748;2023-12-07T12:24:20;7.97;;;7.32;;
56319;SDS011;42226;42.382;23.748;2023-12-07T12:26:48;8.20;;;7.50;;
56319;SDS011;42226;42.382;23.748;2023-12-07T12:32:08;10.38;;;9.48;;
56319;SDS011;42226;42.382;23.748;2023-12-07T12:34:36;7.90;;;7.30;;
56319;SDS011;42226;42.382;23.748;2023-12-07T12:37:03;34.63;;;28.15;;
56319;SDS011;42226;42.382;23.748;2023-12-07T12:39:32;9.10;;;8.35;;
56319;SDS011;42226;42.382;23.748;2023-12-07T12:42:01;9.90;;;8.90;;
56319;SDS011;42226;42.382;23.748;2023-12-07T12:44:32;8.70;;;7.90;;
56319;SDS011;42226;42.382;23.748;2023-12-07T12:47:01;18.25;;;16.50;;
56319;SDS011;42226;42.382;23.748;2023-12-07T12:49:35;9.07;;;8.27;;
56319;SDS011;42226;42.382;23.748;2023-12-07T12:52:03;9.75;;;8.85;;
56319;SDS011;42226;42.382;23.748;2023-12-07T12:54:35;8.43;;;7.70;;
56319;SDS011;42226;42.382;23.748;2023-12-07T12:57:02;8.05;;;7.35;;
56319;SDS011;42226;42.382;23.748;2023-12-07T12:59:31;10.55;;;9.45;;
56319;SDS011;42226;42.382;23.748;2023-12-07T13:01:59;7.68;;;7.07;;
56319;SDS011;42226;42.382;23.748;2023-12-07T13:04:29;7.47;;;6.85;;
56319;SDS011;42226;42.382;23.748;2023-12-07T13:06:57;13.18;;;11.77;;
56319;SDS011;42226;42.382;23.748;2023-12-07T13:09:24;25.95;;;19.23;;
56319;SDS011;42226;42.382;23.748;2023-12-07T13:11:51;7.78;;;7.07;;
56319;SDS011;42226;42.382;23.748;2023-12-07T13:14:19;8.18;;;7.47;;
56319;SDS011;42226;42.382;23.748;2023-12-07T13:16:46;22.52;;;16.83;;
56319;SDS011;42226;42.382;23.748;2023-12-07T13:19:14;17.23;;;12.15;;
56319;SDS011;42226;42.382;23.748;2023-12-07T13:21:42;6.85;;;6.35;;
56319;SDS011;42226;42.382;23.748;2023-12-07T13:24:10;12.20;;;9.80;;
56319;SDS011;42226;42.382;23.748;2023-12-07T13:26:41;7.63;;;7.03;;
56319;SDS011;42226;42.382;23.748;2023-12-07T13:29:09;8.43;;;7.63;;
56319;SDS011;42226;42.382;23.748;2023-12-07T13:31:36;7.65;;;7.05;;
56319;SDS011;42226;42.382;23.748;2023-12-07T13:34:04;7.78;;;7.13;;
56319;SDS011;42226;42.382;23.748;2023-12-07T13:36:31;6.20;;;5.75;;
56319;SDS011;42226;42.382;23.748;2023-12-07T13:39:00;7.60;;;7.00;;
56319;SDS011;42226;42.382;23.748;2023-12-07T13:41:27;6.70;;;6.20;;
56319;SDS011;42226;42.382;23.748;2023-12-07T13:43:56;6.35;;;5.95;;
56319;SDS011;42226;42.382;23.748;2023-12-07T13:46:23;6.38;;;5.95;;
56319;SDS011;42226;42.382;23.748;2023-12-07T13:48:51;6.45;;;5.95;;
56319;SDS011;42226;42.382;23.748;2023-12-07T13:51:20;5.97;;;5.60;;
56319;SDS011;42226;42.382;23.748;2023-12-07T13:53:48;6.05;;;5.65;;
56319;SDS011;42226;42.382;23.748;2023-12-07T13:56:21;6.32;;;5.93;;
56319;SDS011;42226;42.382;23.748;2023-12-07T13:58:49;6.03;;;5.70;;
56319;SDS011;42226;42.382;23.748;2023-12-07T14:01:18;6.43;;;5.95;;
56319;SDS011;42226;42.382;23.748;2023-12-07T14:03:46;6.10;;;5.70;;
56319;SDS011;42226;42.382;23.748;2023-12-07T14:06:24;6.22;;;5.82;;
56319;SDS011;42226;42.382;23.748;2023-12-07T14:08:53;6.15;;;5.75;;
56319;SDS011;42226;42.382;23.748;2023-12-07T14:11:21;9.10;;;8.40;;
56319;SDS011;42226;42.382;23.748;2023-12-07T14:13:49;7.20;;;6.65;;
56319;SDS011;42226;42.382;23.748;2023-12-07T14:16:20;6.72;;;6.22;;
56319;SDS011;42226;42.382;23.748;2023-12-07T14:21:32;6.18;;;5.78;;
56319;SDS011;42226;42.382;23.748;2023-12-07T14:23:59;6.43;;;6.00;;
56319;SDS011;42226;42.382;23.748;2023-12-07T14:26:28;5.80;;;5.47;;
56319;SDS011;42226;42.382;23.748;2023-12-07T14:28:56;6.90;;;6.40;;
56319;SDS011;42226;42.382;23.748;2023-12-07T14:31:24;5.97;;;5.65;;
56319;SDS011;42226;42.382;23.748;2023-12-07T14:33:51;6.20;;;5.80;;
56319;SDS011;42226;42.382;23.748;2023-12-07T14:36:19;5.45;;;5.15;;
56319;SDS011;42226;42.382;23.748;2023-12-07T14:38:46;5.40;;;5.10;;
56319;SDS011;42226;42.382;23.748;2023-12-07T14:41:15;5.40;;;5.10;;
56319;SDS011;42226;42.382;23.748;2023-12-07T14:46:53;5.60;;;5.30;;
56319;SDS011;42226;42.382;23.748;2023-12-07T14:49:21;5.80;;;5.40;;
56319;SDS011;42226;42.382;23.748;2023-12-07T14:51:58;5.68;;;5.38;;
56319;SDS011;42226;42.382;23.748;2023-12-07T14:54:37;5.35;;;5.05;;
56319;SDS011;42226;42.382;23.748;2023-12-07T14:57:05;5.45;;;5.15;;
56319;SDS011;42226;42.382;23.748;2023-12-07T14:59:34;5.20;;;4.90;;
56319;SDS011;42226;42.382;23.748;2023-12-07T15:02:01;5.22;;;4.97;;
56319;SDS011;42226;42.382;23.748;2023-12-07T15:04:29;5.10;;;4.80;;
56319;SDS011;42226;42.382;23.748;2023-12-07T15:06:57;5.07;;;4.78;;
56319;SDS011;42226;42.382;23.748;2023-12-07T15:21:44;4.82;;;4.63;;
56319;SDS011;42226;42.382;23.748;2023-12-07T15:24:12;5.00;;;4.80;;